Ifestos I — SV4139 — position and weather

sailwx.info

Track history (hours):
 
Tides and Currents Weather Stations Pressure Air Temp Water Temp Dewpoint Dewpoint Depression Visibility Wind Speed Wind Dir Waves Ship Positions

Ifestos I

Last reported at 2015-Jul-04 20:14 UTC. Time now 2015-Jul-05 17:34 UTC.
Position N 37°57' E 023°37'.

Length 30 m.

Type: Tug. MMSI: 237070500.

Date/timePositionNaut miles runAvg speedWind from/ knotsBaromVisibWave heightAir tempDewpointWater temp
2015-Jul-04 20:14N 37°57' E 023°37'0 0.0
2015-Jul-04 19:34N 37°57' E 023°37'4 4.2
2015-Jul-04 18:33N 38°02' E 023°35'0 0.1
2015-Jul-04 17:33N 38°01' E 023°35'0 0.0
2015-Jul-04 16:34N 38°01' E 023°36'0 0.0
2015-Jul-04 15:33N 38°01' E 023°36'0 0.0
2015-Jul-04 14:33N 38°01' E 023°36'0 0.0
2015-Jul-04 13:34N 38°01' E 023°36'0 0.0
2015-Jul-04 12:34N 38°01' E 023°36'0 0.0
2015-Jul-04 11:33N 38°01' E 023°36'0 0.0
2015-Jul-04 10:33N 38°01' E 023°36'0 0.0
2015-Jul-04 09:33N 38°01' E 023°36'0 0.0
2015-Jul-04 08:33N 38°01' E 023°36'0 0.0
2015-Jul-04 07:33N 38°01' E 023°36'0 0.0
2015-Jul-04 06:34N 38°01' E 023°36'0 0.0
2015-Jul-04 05:33N 38°01' E 023°36'0 0.0
2015-Jul-04 04:33N 38°01' E 023°36'0 0.0
2015-Jul-04 03:33N 38°01' E 023°36'0 0.0
2015-Jul-04 02:33N 38°01' E 023°36'0 0.0
2015-Jul-04 01:33N 38°01' E 023°36'0 0.0
2015-Jul-04 00:33N 38°01' E 023°36'0 0.0
2015-Jul-03 23:34N 38°01' E 023°36'0 0.0
2015-Jul-03 22:33N 38°01' E 023°36'0 0.0
2015-Jul-03 21:34N 38°01' E 023°36'0 0.0
2015-Jul-03 20:33N 38°01' E 023°36'0 0.0
2015-Jul-03 19:33N 38°01' E 023°36'0 0.0
2015-Jul-03 18:33N 38°01' E 023°36'0 0.0
2015-Jul-03 17:33N 38°01' E 023°36'0 0.0
2015-Jul-03 16:34N 38°01' E 023°36'0 0.0
2015-Jul-03 15:33N 38°01' E 023°36'0 0.0
2015-Jul-03 14:34N 38°01' E 023°36'0 0.0
2015-Jul-03 13:33N 38°01' E 023°36'0 0.0
2015-Jul-03 12:34N 38°01' E 023°36'0 0.0
2015-Jul-03 11:33N 38°01' E 023°36'0 0.0
2015-Jul-03 10:34N 38°01' E 023°36'0 0.0
2015-Jul-03 09:34N 38°01' E 023°36'0 0.0
2015-Jul-03 08:33N 38°01' E 023°36'0 0.0
2015-Jul-03 07:33N 38°01' E 023°36'0 0.2
2015-Jul-03 06:31N 38°02' E 023°35'1 0.9
2015-Jul-03 05:33N 38°01' E 023°35'3 3.4
2015-Jul-03 04:34N 37°58' E 023°33'0 0.0
2015-Jul-03 03:33N 37°58' E 023°33'3 2.5
2015-Jul-03 02:34N 37°57' E 023°37'0 0.0
2015-Jul-02 10:31N 37°57' E 023°36'1 0.8
2015-Jul-02 09:33N 37°57' E 023°35'1 0.7
2015-Jul-02 08:33N 37°57' E 023°35'1 0.8
2015-Jul-02 07:32N 37°57' E 023°34'2 2.3
2015-Jul-02 06:30N 37°57' E 023°37'1 0.4
2015-Jul-02 04:33N 37°57' E 023°36'0 0.0
2015-Jul-02 03:33N 37°57' E 023°36'1 0.7
2015-Jul-02 02:33N 37°57' E 023°37'0 0.0
2015-Jul-01 14:17N 37°57' E 023°36'0 0.4
2015-Jul-01 13:33N 37°57' E 023°36'3 3.2
2015-Jul-01 12:33N 37°59' E 023°33'4 3.6
2015-Jul-01 11:33N 38°02' E 023°30'0 0.0
2015-Jul-01 10:33N 38°02' E 023°30'2 1.6
2015-Jul-01 09:24N 38°02' E 023°32'0 0.0
2015-Jul-01 08:19N 38°02' E 023°32'0 0.0
2015-Jul-01 07:28N 38°02' E 023°32'0 0.0
2015-Jul-01 06:17N 38°02' E 023°32'1 1.5
2015-Jul-01 05:33N 38°02' E 023°34'0 0.0
2015-Jul-01 04:22N 38°02' E 023°34'6 6.8
2015-Jul-01 03:33N 37°57' E 023°36'1 1.0
2015-Jul-01 02:33N 37°57' E 023°37'0 0.0
2015-Jun-30 12:33N 37°57' E 023°37'2 2.4
2015-Jun-30 11:33N 37°57' E 023°34'3 2.6
2015-Jun-30 10:33N 37°60' E 023°33'2 2.2
2015-Jun-30 09:32N 38°02' E 023°32'0 0.0
2015-Jun-30 08:28N 38°02' E 023°32'0 0.0
2015-Jun-30 07:32N 38°02' E 023°32'0 0.0
2015-Jun-30 06:28N 38°02' E 023°32'2 2.0
2015-Jun-30 05:33N 38°02' E 023°30'2 1.8
2015-Jun-30 04:33N 38°02' E 023°32'4 4.2
2015-Jun-30 03:33N 37°58' E 023°33'3 3.1
2015-Jun-30 02:33N 37°57' E 023°37'0 0.0
2015-Jun-29 16:09N 37°57' E 023°37'0 0.0
2015-Jun-29 15:33N 37°57' E 023°37'0 0.0
2015-Jun-29 14:33N 37°57' E 023°37'0 0.0
2015-Jun-29 13:33N 37°57' E 023°37'0 0.0
2015-Jun-29 12:33N 37°57' E 023°37'1 1.1
2015-Jun-29 11:33N 37°57' E 023°35'2 1.6
2015-Jun-29 10:33N 37°57' E 023°33'0 0.4
2015-Jun-29 09:33N 37°58' E 023°34'0 0.2
2015-Jun-29 08:33N 37°57' E 023°33'0 0.0
2015-Jun-29 07:33N 37°57' E 023°33'3 2.5
2015-Jun-29 06:33N 37°57' E 023°37'0 0.0
2015-Jun-29 05:33N 37°57' E 023°37'1 0.7
2015-Jun-29 04:33N 37°57' E 023°36'0 0.4
2015-Jun-29 03:33N 37°57' E 023°35'1 1.1
2015-Jun-29 02:33N 37°57' E 023°37'0 0.0
2015-Jun-28 13:14N 37°57' E 023°37'0 0.0
2015-Jun-28 12:33N 37°57' E 023°37'0 0.2
2015-Jun-28 11:33N 37°58' E 023°36'1 1.3
2015-Jun-28 10:33N 37°56' E 023°36'1 1.2
2015-Jun-28 09:33N 37°57' E 023°37'0 0.0
2015-Jun-28 08:33N 37°57' E 023°37'0 0.0
2015-Jun-28 07:33N 37°57' E 023°37'0 0.0
2015-Jun-28 06:33N 37°57' E 023°37'0 0.1
2015-Jun-28 05:33N 37°58' E 023°37'1 1.2
2015-Jun-28 04:33N 37°56' E 023°36'1 0.7
2015-Jun-28 03:33N 37°57' E 023°36'1 0.1
2015-Jun-27 12:24N 37°57' E 023°37'0 0.0
2015-Jun-27 11:33N 37°57' E 023°37'2 2.4
2015-Jun-27 10:33N 37°57' E 023°34'7 7.1
2015-Jun-27 09:34N 37°59' E 023°25'2 1.7
2015-Jun-27 08:34N 37°58' E 023°23'2 1.8
2015-Jun-27 07:24N 37°56' E 023°23'2 2.7
2015-Jun-27 06:33N 37°58' E 023°24'0 0.0
2015-Jun-27 05:33N 37°58' E 023°24'2 1.7
2015-Jun-27 04:33N 37°60' E 023°25'7 6.7
2015-Jun-27 03:33N 37°57' E 023°34'2 2.5
2015-Jun-27 02:34N 37°57' E 023°37'0 0.0
2015-Jun-26 14:20N 37°57' E 023°37'0 0.0
2015-Jun-26 13:33N 37°57' E 023°37'0 0.0
2015-Jun-26 12:33N 37°57' E 023°37'0 0.0
2015-Jun-26 11:33N 37°57' E 023°37'2 1.9
2015-Jun-26 10:34N 37°57' E 023°34'6 5.6
2015-Jun-26 09:34N 38°02' E 023°32'1 0.8
2015-Jun-26 08:33N 38°02' E 023°31'0 0.0
2015-Jun-26 07:34N 38°02' E 023°31'0 0.0
2015-Jun-26 06:34N 38°02' E 023°31'0 0.0
2015-Jun-26 05:33N 38°02' E 023°31'0 0.0
2015-Jun-26 04:32N 38°02' E 023°31'0 0.0
2015-Jun-26 03:33N 38°02' E 023°31'0 0.0
2015-Jun-26 02:33N 38°02' E 023°31'0 0.0
2015-Jun-26 01:14N 38°02' E 023°31'0 0.0
2015-Jun-26 00:24N 38°02' E 023°31'0 0.0
2015-Jun-25 23:24N 38°02' E 023°31'0 0.0
2015-Jun-25 22:33N 38°02' E 023°31'0 0.0
2015-Jun-25 21:32N 38°02' E 023°31'0 0.0
2015-Jun-25 20:16N 38°02' E 023°31'0 0.0
2015-Jun-25 19:32N 38°02' E 023°31'0 0.0
2015-Jun-25 18:27N 38°02' E 023°31'0 0.0
2015-Jun-25 17:16N 38°02' E 023°31'0 0.0
2015-Jun-25 16:33N 38°02' E 023°31'0 0.0
2015-Jun-25 15:30N 38°02' E 023°31'0 0.0
2015-Jun-25 14:27N 38°02' E 023°31'0 0.0
2015-Jun-25 13:33N 38°02' E 023°31'0 0.0
2015-Jun-25 12:33N 38°02' E 023°31'0 0.0
2015-Jun-25 11:34N 38°02' E 023°31'0 0.0
2015-Jun-25 10:34N 38°02' E 023°31'0 0.0
2015-Jun-25 09:33N 38°02' E 023°31'0 0.0
2015-Jun-25 08:34N 38°02' E 023°31'0 0.0
2015-Jun-25 07:34N 38°02' E 023°31'0 0.0
2015-Jun-25 06:33N 38°02' E 023°31'0 0.0
2015-Jun-25 05:33N 38°02' E 023°31'0 0.0
2015-Jun-25 04:33N 38°02' E 023°31'0 0.0
2015-Jun-25 03:33N 38°02' E 023°31'0 0.0
2015-Jun-25 02:34N 38°02' E 023°31'0 0.0
2015-Jun-25 01:33N 38°02' E 023°31'0 0.0
2015-Jun-25 00:34N 38°02' E 023°31'0 0.0
2015-Jun-24 23:33N 38°02' E 023°31'0 0.0
2015-Jun-24 22:28N 38°02' E 023°31'0 0.0
2015-Jun-24 21:34N 38°02' E 023°31'0 0.0
2015-Jun-24 20:34N 38°02' E 023°31'  
Track history (hours):
 
Tides and Currents Weather Stations Pressure Air Temp Water Temp Dewpoint Dewpoint Depression Visibility Wind Speed Wind Dir Waves Ship Positions

Ifestos I

Last reported at 2015-Jul-04 20:14 UTC. Time now 2015-Jul-05 17:34 UTC.
Position N 37°57' E 023°37'.

Length 30 m.

Type: Tug. MMSI: 237070500.

Date/timePositionNaut miles runAvg speedWind from/ knotsBaromVisibWave heightAir tempDewpointWater temp
2015-Jul-04 20:14N 37°57' E 023°37'0 0.0
2015-Jul-04 19:34N 37°57' E 023°37'4 4.2
2015-Jul-04 18:33N 38°02' E 023°35'0 0.1
2015-Jul-04 17:33N 38°01' E 023°35'0 0.0
2015-Jul-04 16:34N 38°01' E 023°36'0 0.0
2015-Jul-04 15:33N 38°01' E 023°36'0 0.0
2015-Jul-04 14:33N 38°01' E 023°36'0 0.0
2015-Jul-04 13:34N 38°01' E 023°36'0 0.0
2015-Jul-04 12:34N 38°01' E 023°36'0 0.0
2015-Jul-04 11:33N 38°01' E 023°36'0 0.0
2015-Jul-04 10:33N 38°01' E 023°36'0 0.0
2015-Jul-04 09:33N 38°01' E 023°36'0 0.0
2015-Jul-04 08:33N 38°01' E 023°36'0 0.0
2015-Jul-04 07:33N 38°01' E 023°36'0 0.0
2015-Jul-04 06:34N 38°01' E 023°36'0 0.0
2015-Jul-04 05:33N 38°01' E 023°36'0 0.0
2015-Jul-04 04:33N 38°01' E 023°36'0 0.0
2015-Jul-04 03:33N 38°01' E 023°36'0 0.0
2015-Jul-04 02:33N 38°01' E 023°36'0 0.0
2015-Jul-04 01:33N 38°01' E 023°36'0 0.0
2015-Jul-04 00:33N 38°01' E 023°36'0 0.0
2015-Jul-03 23:34N 38°01' E 023°36'0 0.0
2015-Jul-03 22:33N 38°01' E 023°36'0 0.0
2015-Jul-03 21:34N 38°01' E 023°36'0 0.0
2015-Jul-03 20:33N 38°01' E 023°36'0 0.0
2015-Jul-03 19:33N 38°01' E 023°36'0 0.0
2015-Jul-03 18:33N 38°01' E 023°36'0 0.0
2015-Jul-03 17:33N 38°01' E 023°36'0 0.0
2015-Jul-03 16:34N 38°01' E 023°36'0 0.0
2015-Jul-03 15:33N 38°01' E 023°36'0 0.0
2015-Jul-03 14:34N 38°01' E 023°36'0 0.0
2015-Jul-03 13:33N 38°01' E 023°36'0 0.0
2015-Jul-03 12:34N 38°01' E 023°36'0 0.0
2015-Jul-03 11:33N 38°01' E 023°36'0 0.0
2015-Jul-03 10:34N 38°01' E 023°36'0 0.0
2015-Jul-03 09:34N 38°01' E 023°36'0 0.0
2015-Jul-03 08:33N 38°01' E 023°36'0 0.0
2015-Jul-03 07:33N 38°01' E 023°36'0 0.2
2015-Jul-03 06:31N 38°02' E 023°35'1 0.9
2015-Jul-03 05:33N 38°01' E 023°35'3 3.4
2015-Jul-03 04:34N 37°58' E 023°33'0 0.0
2015-Jul-03 03:33N 37°58' E 023°33'3 2.5
2015-Jul-03 02:34N 37°57' E 023°37'0 0.0
2015-Jul-02 10:31N 37°57' E 023°36'1 0.8
2015-Jul-02 09:33N 37°57' E 023°35'1 0.7
2015-Jul-02 08:33N 37°57' E 023°35'1 0.8
2015-Jul-02 07:32N 37°57' E 023°34'2 2.3
2015-Jul-02 06:30N 37°57' E 023°37'1 0.4
2015-Jul-02 04:33N 37°57' E 023°36'0 0.0
2015-Jul-02 03:33N 37°57' E 023°36'1 0.7
2015-Jul-02 02:33N 37°57' E 023°37'0 0.0
2015-Jul-01 14:17N 37°57' E 023°36'0 0.4
2015-Jul-01 13:33N 37°57' E 023°36'3 3.2
2015-Jul-01 12:33N 37°59' E 023°33'4 3.6
2015-Jul-01 11:33N 38°02' E 023°30'0 0.0
2015-Jul-01 10:33N 38°02' E 023°30'2 1.6
2015-Jul-01 09:24N 38°02' E 023°32'0 0.0
2015-Jul-01 08:19N 38°02' E 023°32'0 0.0
2015-Jul-01 07:28N 38°02' E 023°32'0 0.0
2015-Jul-01 06:17N 38°02' E 023°32'1 1.5
2015-Jul-01 05:33N 38°02' E 023°34'0 0.0
2015-Jul-01 04:22N 38°02' E 023°34'6 6.8
2015-Jul-01 03:33N 37°57' E 023°36'1 1.0
2015-Jul-01 02:33N 37°57' E 023°37'0 0.0
2015-Jun-30 12:33N 37°57' E 023°37'2 2.4
2015-Jun-30 11:33N 37°57' E 023°34'3 2.6
2015-Jun-30 10:33N 37°60' E 023°33'2 2.2
2015-Jun-30 09:32N 38°02' E 023°32'0 0.0
2015-Jun-30 08:28N 38°02' E 023°32'0 0.0
2015-Jun-30 07:32N 38°02' E 023°32'0 0.0
2015-Jun-30 06:28N 38°02' E 023°32'2 2.0
2015-Jun-30 05:33N 38°02' E 023°30'2 1.8
2015-Jun-30 04:33N 38°02' E 023°32'4 4.2
2015-Jun-30 03:33N 37°58' E 023°33'3 3.1
2015-Jun-30 02:33N 37°57' E 023°37'0 0.0
2015-Jun-29 16:09N 37°57' E 023°37'0 0.0
2015-Jun-29 15:33N 37°57' E 023°37'0 0.0
2015-Jun-29 14:33N 37°57' E 023°37'0 0.0
2015-Jun-29 13:33N 37°57' E 023°37'0 0.0
2015-Jun-29 12:33N 37°57' E 023°37'1 1.1
2015-Jun-29 11:33N 37°57' E 023°35'2 1.6
2015-Jun-29 10:33N 37°57' E 023°33'0 0.4
2015-Jun-29 09:33N 37°58' E 023°34'0 0.2
2015-Jun-29 08:33N 37°57' E 023°33'0 0.0
2015-Jun-29 07:33N 37°57' E 023°33'3 2.5
2015-Jun-29 06:33N 37°57' E 023°37'0 0.0
2015-Jun-29 05:33N 37°57' E 023°37'1 0.7
2015-Jun-29 04:33N 37°57' E 023°36'0 0.4
2015-Jun-29 03:33N 37°57' E 023°35'1 1.1
2015-Jun-29 02:33N 37°57' E 023°37'0 0.0
2015-Jun-28 13:14N 37°57' E 023°37'0 0.0
2015-Jun-28 12:33N 37°57' E 023°37'0 0.2
2015-Jun-28 11:33N 37°58' E 023°36'1 1.3
2015-Jun-28 10:33N 37°56' E 023°36'1 1.2
2015-Jun-28 09:33N 37°57' E 023°37'0 0.0
2015-Jun-28 08:33N 37°57' E 023°37'0 0.0
2015-Jun-28 07:33N 37°57' E 023°37'0 0.0
2015-Jun-28 06:33N 37°57' E 023°37'0 0.1
2015-Jun-28 05:33N 37°58' E 023°37'1 1.2
2015-Jun-28 04:33N 37°56' E 023°36'1 0.7
2015-Jun-28 03:33N 37°57' E 023°36'1 0.1
2015-Jun-27 12:24N 37°57' E 023°37'0 0.0
2015-Jun-27 11:33N 37°57' E 023°37'2 2.4
2015-Jun-27 10:33N 37°57' E 023°34'7 7.1
2015-Jun-27 09:34N 37°59' E 023°25'2 1.7
2015-Jun-27 08:34N 37°58' E 023°23'2 1.8
2015-Jun-27 07:24N 37°56' E 023°23'2 2.7
2015-Jun-27 06:33N 37°58' E 023°24'0 0.0
2015-Jun-27 05:33N 37°58' E 023°24'2 1.7
2015-Jun-27 04:33N 37°60' E 023°25'7 6.7
2015-Jun-27 03:33N 37°57' E 023°34'2 2.5
2015-Jun-27 02:34N 37°57' E 023°37'0 0.0
2015-Jun-26 14:20N 37°57' E 023°37'0 0.0
2015-Jun-26 13:33N 37°57' E 023°37'0 0.0
2015-Jun-26 12:33N 37°57' E 023°37'0 0.0
2015-Jun-26 11:33N 37°57' E 023°37'2 1.9
2015-Jun-26 10:34N 37°57' E 023°34'6 5.6
2015-Jun-26 09:34N 38°02' E 023°32'1 0.8
2015-Jun-26 08:33N 38°02' E 023°31'0 0.0
2015-Jun-26 07:34N 38°02' E 023°31'0 0.0
2015-Jun-26 06:34N 38°02' E 023°31'0 0.0
2015-Jun-26 05:33N 38°02' E 023°31'0 0.0
2015-Jun-26 04:32N 38°02' E 023°31'0 0.0
2015-Jun-26 03:33N 38°02' E 023°31'0 0.0
2015-Jun-26 02:33N 38°02' E 023°31'0 0.0
2015-Jun-26 01:14N 38°02' E 023°31'0 0.0
2015-Jun-26 00:24N 38°02' E 023°31'0 0.0
2015-Jun-25 23:24N 38°02' E 023°31'0 0.0
2015-Jun-25 22:33N 38°02' E 023°31'0 0.0
2015-Jun-25 21:32N 38°02' E 023°31'0 0.0
2015-Jun-25 20:16N 38°02' E 023°31'0 0.0
2015-Jun-25 19:32N 38°02' E 023°31'0 0.0
2015-Jun-25 18:27N 38°02' E 023°31'0 0.0
2015-Jun-25 17:16N 38°02' E 023°31'0 0.0
2015-Jun-25 16:33N 38°02' E 023°31'0 0.0
2015-Jun-25 15:30N 38°02' E 023°31'0 0.0
2015-Jun-25 14:27N 38°02' E 023°31'0 0.0
2015-Jun-25 13:33N 38°02' E 023°31'0 0.0
2015-Jun-25 12:33N 38°02' E 023°31'0 0.0
2015-Jun-25 11:34N 38°02' E 023°31'0 0.0
2015-Jun-25 10:34N 38°02' E 023°31'0 0.0
2015-Jun-25 09:33N 38°02' E 023°31'0 0.0
2015-Jun-25 08:34N 38°02' E 023°31'0 0.0
2015-Jun-25 07:34N 38°02' E 023°31'0 0.0
2015-Jun-25 06:33N 38°02' E 023°31'0 0.0
2015-Jun-25 05:33N 38°02' E 023°31'0 0.0
2015-Jun-25 04:33N 38°02' E 023°31'0 0.0
2015-Jun-25 03:33N 38°02' E 023°31'0 0.0
2015-Jun-25 02:34N 38°02' E 023°31'0 0.0
2015-Jun-25 01:33N 38°02' E 023°31'0 0.0
2015-Jun-25 00:34N 38°02' E 023°31'0 0.0
2015-Jun-24 23:33N 38°02' E 023°31'0 0.0
2015-Jun-24 22:28N 38°02' E 023°31'0 0.0
2015-Jun-24 21:34N 38°02' E 023°31'0 0.0
2015-Jun-24 20:34N 38°02' E 023°31'  

Dump ship's entire track history